Time;durP1;ratioP1;P1;durP2;ratioP2;P2;SDS_P1;SDS_P2;PMS_P1;PMS_P2;Temp;Humidity;BMP_temperature;BMP_pressure;BME280_temperature;BME280_humidity;BME280_pressure;Samples;Min_cycle;Max_cycle;Signal;HPM_P1;HPM_P2
2024/01/23 00:01:42;;;;;;;2.13;1.40;;;7.70;98.00;;;;;;5014380;28;20816;-68
2024/01/23 00:04:11;;;;;;;1.77;1.40;;;7.70;98.00;;;;;;5032155;28;20979;-68
2024/01/23 00:06:38;;;;;;;2.10;1.40;;;7.70;98.00;;;;;;5031935;28;20458;-68
2024/01/23 00:09:05;;;;;;;2.97;1.80;;;7.70;98.00;;;;;;5032135;28;20488;-68
2024/01/23 00:11:33;;;;;;;1.40;1.40;;;7.70;98.00;;;;;;5031865;28;20494;-68
2024/01/23 00:14:00;;;;;;;1.63;1.30;;;7.70;98.00;;;;;;5031516;28;20457;-68
2024/01/23 00:16:27;;;;;;;1.20;1.20;;;7.70;98.00;;;;;;5031714;28;20754;-69
2024/01/23 00:18:54;;;;;;;1.83;1.30;;;7.70;98.00;;;;;;5031641;28;20465;-68
2024/01/23 00:21:22;;;;;;;3.50;1.63;;;7.70;98.00;;;;;;5031674;28;20456;-68
2024/01/23 00:23:49;;;;;;;1.57;1.20;;;7.70;98.00;;;;;;5031461;28;20452;-68
2024/01/23 00:26:16;;;;;;;3.70;1.80;;;7.70;98.00;;;;;;5031647;28;20818;-69
2024/01/23 00:28:43;;;;;;;2.50;1.50;;;7.70;98.00;;;;;;5031423;28;20488;-68
2024/01/23 00:31:11;;;;;;;2.13;1.40;;;7.70;98.00;;;;;;5031620;28;20463;-68
2024/01/23 00:33:38;;;;;;;1.50;1.50;;;7.70;98.00;;;;;;5014096;28;20451;-68
2024/01/23 00:36:06;;;;;;;3.17;1.60;;;7.70;98.00;;;;;;5031370;28;20468;-69
2024/01/23 00:38:35;;;;;;;2.60;1.30;;;7.70;98.00;;;;;;5031467;28;20463;-68
2024/01/23 00:41:02;;;;;;;1.60;1.30;;;7.60;98.00;;;;;;5031330;28;20515;-68
2024/01/23 00:43:30;;;;;;;2.60;1.23;;;7.60;98.00;;;;;;5031402;28;20456;-68
2024/01/23 00:45:57;;;;;;;4.93;1.97;;;7.60;98.00;;;;;;5031365;28;20582;-67
2024/01/23 00:48:24;;;;;;;1.97;1.30;;;7.60;98.00;;;;;;5031293;28;20549;-67
2024/01/23 00:50:51;;;;;;;1.50;1.20;;;7.60;98.00;;;;;;5031207;28;20469;-68
2024/01/23 00:53:19;;;;;;;3.20;1.50;;;7.50;98.00;;;;;;5031552;28;20538;-68
2024/01/23 00:55:47;;;;;;;2.13;1.50;;;7.50;98.00;;;;;;5031222;28;20478;-68
2024/01/23 00:58:15;;;;;;;2.70;1.33;;;7.40;98.00;;;;;;5031453;28;20468;-68
2024/01/23 01:00:45;;;;;;;2.07;1.40;;;7.40;98.00;;;;;;5031275;28;20455;-68
2024/01/23 01:03:12;;;;;;;4.50;1.40;;;7.40;98.00;;;;;;5031320;28;20456;-68
2024/01/23 01:05:39;;;;;;;4.40;1.77;;;7.40;98.00;;;;;;5031299;28;20790;-68
2024/01/23 01:08:07;;;;;;;2.70;1.37;;;7.40;98.00;;;;;;5030987;28;20483;-69
2024/01/23 01:10:34;;;;;;;5.83;1.57;;;7.50;98.00;;;;;;5031316;28;20457;-68
2024/01/23 01:13:03;;;;;;;3.57;1.40;;;7.50;98.00;;;;;;5031319;28;20963;-68
2024/01/23 01:15:30;;;;;;;1.43;1.30;;;7.50;98.00;;;;;;5031569;28;20449;-68
2024/01/23 01:17:57;;;;;;;4.40;1.50;;;7.60;98.00;;;;;;5031279;28;20969;-68
2024/01/23 01:20:24;;;;;;;3.33;1.30;;;7.60;98.00;;;;;;5031158;28;20502;-68
2024/01/23 01:22:52;;;;;;;2.70;1.57;;;7.60;98.00;;;;;;5031011;28;20672;-68
2024/01/23 01:25:19;;;;;;;2.40;1.37;;;7.60;98.00;;;;;;5031200;28;20970;-68
2024/01/23 01:27:48;;;;;;;1.97;1.50;;;7.60;98.00;;;;;;5035085;28;20484;-68
2024/01/23 01:30:17;;;;;;;1.90;1.30;;;7.50;98.00;;;;;;5035073;28;20494;-68
2024/01/23 01:32:44;;;;;;;1.70;1.50;;;7.50;98.00;;;;;;5035276;28;20485;-68
2024/01/23 01:35:12;;;;;;;2.77;1.30;;;7.30;98.00;;;;;;5036010;28;20875;-69
2024/01/23 01:37:39;;;;;;;2.17;1.50;;;7.30;98.00;;;;;;5035449;28;20464;-68
2024/01/23 01:40:07;;;;;;;3.20;1.50;;;7.20;98.00;;;;;;5035639;28;20486;-67
2024/01/23 01:42:34;;;;;;;2.07;1.30;;;7.20;98.00;;;;;;5034370;28;21076;-68
2024/01/23 01:45:03;;;;;;;2.10;1.43;;;7.10;98.00;;;;;;5034513;28;20558;-68
2024/01/23 01:47:32;;;;;;;1.40;1.20;;;7.00;98.00;;;;;;5034788;28;20546;-68
2024/01/23 01:49:59;;;;;;;3.10;1.30;;;7.00;98.00;;;;;;5034594;28;20464;-68
2024/01/23 01:52:26;;;;;;;1.80;1.20;;;6.90;98.00;;;;;;5034636;28;20709;-68
2024/01/23 01:54:55;;;;;;;2.80;1.30;;;6.90;98.00;;;;;;5016830;28;20461;-68
2024/01/23 01:57:24;;;;;;;2.27;1.40;;;6.80;98.00;;;;;;5034522;28;20468;-68
2024/01/23 01:59:51;;;;;;;2.47;1.13;;;6.80;98.00;;;;;;5034508;28;20451;-68
2024/01/23 02:02:19;;;;;;;1.97;1.20;;;6.90;98.00;;;;;;5034234;28;20459;-67
2024/01/23 02:04:49;;;;;;;1.57;1.33;;;6.90;98.00;;;;;;5034283;28;20449;-68
2024/01/23 02:07:16;;;;;;;1.40;1.20;;;7.00;98.00;;;;;;5016505;28;20451;-68
2024/01/23 02:09:43;;;;;;;4.20;1.50;;;7.00;98.00;;;;;;5034176;28;20615;-68
2024/01/23 02:12:10;;;;;;;3.57;1.30;;;6.90;98.00;;;;;;5034024;28;20905;-67
2024/01/23 02:14:38;;;;;;;2.60;1.20;;;6.90;98.00;;;;;;5034592;28;20448;-68
2024/01/23 02:17:05;;;;;;;1.80;1.40;;;6.90;98.00;;;;;;5034624;28;21069;-68
2024/01/23 02:19:32;;;;;;;8.53;1.50;;;6.80;98.00;;;;;;5034735;28;20456;-68
2024/01/23 02:22:01;;;;;;;4.20;1.30;;;6.80;98.00;;;;;;5016829;28;21015;-68
2024/01/23 02:24:29;;;;;;;2.03;1.40;;;6.80;98.00;;;;;;5034899;28;20455;-68
2024/01/23 02:26:56;;;;;;;1.93;1.30;;;6.70;98.00;;;;;;5034544;28;20447;-67
2024/01/23 02:29:23;;;;;;;2.70;1.60;;;6.70;98.00;;;;;;5034533;28;20486;-68
2024/01/23 02:31:50;;;;;;;4.40;1.40;;;6.70;98.00;;;;;;5034151;28;20856;-68
2024/01/23 02:34:21;;;;;;;3.00;1.50;;;6.70;98.00;;;;;;5034525;28;20461;-68
2024/01/23 02:36:48;;;;;;;3.87;1.53;;;6.70;98.00;;;;;;5034144;28;20990;-68
2024/01/23 02:39:15;;;;;;;1.50;1.30;;;6.70;98.00;;;;;;5034609;28;20462;-68
2024/01/23 02:41:44;;;;;;;4.70;1.40;;;6.80;98.00;;;;;;5034307;28;20462;-67
2024/01/23 02:44:11;;;;;;;4.83;1.70;;;6.80;98.00;;;;;;5034333;28;20465;-69
2024/01/23 02:46:42;;;;;;;1.77;1.30;;;6.80;98.00;;;;;;5034373;28;20952;-68
2024/01/23 02:49:09;;;;;;;2.17;1.40;;;6.80;98.00;;;;;;5034190;28;20872;-68
2024/01/23 02:51:36;;;;;;;4.17;1.30;;;6.80;98.00;;;;;;5034156;28;20446;-67
2024/01/23 02:54:03;;;;;;;4.93;1.90;;;6.80;98.00;;;;;;5034170;28;20481;-68
2024/01/23 02:56:30;;;;;;;3.33;1.30;;;6.80;98.00;;;;;;5034397;28;20455;-67
2024/01/23 02:58:59;;;;;;;3.57;1.60;;;6.80;98.00;;;;;;5034205;28;20447;-68
2024/01/23 03:01:26;;;;;;;1.60;1.30;;;6.80;98.00;;;;;;5034190;28;20455;-68
2024/01/23 03:03:53;;;;;;;3.07;1.47;;;6.80;98.00;;;;;;5034159;28;20950;-68
2024/01/23 03:06:20;;;;;;;3.20;1.50;;;6.80;98.00;;;;;;5034215;28;20448;-68
2024/01/23 03:08:47;;;;;;;2.40;1.60;;;6.80;98.00;;;;;;5034347;28;20486;-68
2024/01/23 03:11:15;;;;;;;4.90;1.70;;;7.00;98.00;;;;;;5034077;28;20892;-68
2024/01/23 03:13:42;;;;;;;3.20;1.30;;;7.00;98.00;;;;;;5033739;28;20453;-68
2024/01/23 03:16:10;;;;;;;3.50;1.30;;;7.00;98.00;;;;;;5033606;28;20455;-68
2024/01/23 03:18:37;;;;;;;2.13;1.40;;;7.00;98.00;;;;;;5033772;28;20451;-69
2024/01/23 03:21:06;;;;;;;4.43;1.47;;;7.10;98.00;;;;;;5033555;28;20462;-68
2024/01/23 03:23:33;;;;;;;3.30;1.40;;;7.10;98.00;;;;;;5033449;28;20447;-67
2024/01/23 03:26:01;;;;;;;4.13;1.37;;;7.10;98.00;;;;;;5033104;28;20977;-68
2024/01/23 03:28:28;;;;;;;4.80;1.53;;;7.10;98.00;;;;;;5033367;28;20531;-68
2024/01/23 03:30:55;;;;;;;4.90;1.70;;;7.10;98.00;;;;;;5033387;28;20466;-68
2024/01/23 03:33:24;;;;;;;1.97;1.40;;;7.10;98.00;;;;;;5033276;28;20467;-68
2024/01/23 03:35:51;;;;;;;1.50;1.30;;;7.10;98.00;;;;;;5032924;28;20467;-68
2024/01/23 03:38:18;;;;;;;3.20;1.40;;;7.10;98.00;;;;;;5033166;28;20459;-67
2024/01/23 03:40:45;;;;;;;3.50;1.50;;;7.10;98.00;;;;;;5033179;28;21012;-68
2024/01/23 03:43:12;;;;;;;4.00;1.50;;;7.10;98.00;;;;;;5033155;28;20491;-68
2024/01/23 03:45:41;;;;;;;3.10;1.50;;;7.10;98.00;;;;;;5015868;28;20451;-69
2024/01/23 03:48:08;;;;;;;6.50;1.70;;;7.20;98.00;;;;;;5032161;28;20502;-68
2024/01/23 03:50:36;;;;;;;1.50;1.30;;;7.10;98.00;;;;;;5031804;28;20457;-68
2024/01/23 03:53:03;;;;;;;3.23;1.50;;;7.10;98.00;;;;;;5032067;28;20454;-68
2024/01/23 03:55:30;;;;;;;2.73;1.40;;;7.10;98.00;;;;;;5032332;28;20457;-68
2024/01/23 03:57:58;;;;;;;3.37;1.73;;;7.10;98.00;;;;;;5031996;28;20968;-67
2024/01/23 04:00:27;;;;;;;4.53;1.53;;;7.10;98.00;;;;;;5032089;28;20453;-67
2024/01/23 04:02:54;;;;;;;2.90;1.70;;;7.10;98.00;;;;;;5031734;28;20465;-67
2024/01/23 04:05:22;;;;;;;8.97;1.50;;;7.00;98.00;;;;;;5031961;28;20455;-67
2024/01/23 04:07:50;;;;;;;6.10;1.83;;;7.00;98.00;;;;;;5031642;28;20456;-67
2024/01/23 04:10:17;;;;;;;3.00;1.50;;;7.00;98.00;;;;;;5031938;28;20491;-68
2024/01/23 04:12:44;;;;;;;2.30;1.40;;;7.10;98.00;;;;;;5031844;28;20931;-69
2024/01/23 04:15:12;;;;;;;4.80;1.63;;;7.10;98.00;;;;;;5031638;28;20466;-67
2024/01/23 04:17:43;;;;;;;7.23;1.50;;;7.10;98.00;;;;;;5031867;28;20456;-68
2024/01/23 04:20:11;;;;;;;8.20;1.60;;;7.10;98.00;;;;;;5031886;28;20459;-68
2024/01/23 04:22:39;;;;;;;4.83;1.80;;;7.20;98.00;;;;;;5031659;28;20456;-68
2024/01/23 04:25:11;;;;;;;5.10;1.50;;;7.20;98.00;;;;;;5031474;28;20454;-68
2024/01/23 04:27:38;;;;;;;5.33;1.57;;;7.20;98.00;;;;;;5031681;28;20448;-67
2024/01/23 04:30:06;;;;;;;1.47;1.30;;;7.20;98.00;;;;;;5031601;28;20918;-68
2024/01/23 04:32:33;;;;;;;9.90;1.60;;;7.30;98.00;;;;;;5031479;28;20466;-68
2024/01/23 04:35:00;;;;;;;5.40;1.67;;;7.30;98.00;;;;;;5031484;28;21103;-68
2024/01/23 04:37:27;;;;;;;6.03;1.60;;;7.20;98.00;;;;;;5031561;28;20452;-68
2024/01/23 04:39:55;;;;;;;5.70;1.77;;;7.30;98.00;;;;;;5031494;28;20550;-69
2024/01/23 04:42:23;;;;;;;2.00;1.50;;;7.30;98.00;;;;;;5031408;28;20529;-68
2024/01/23 04:44:50;;;;;;;2.70;1.70;;;7.30;98.00;;;;;;5031463;28;20465;-69
2024/01/23 04:47:18;;;;;;;2.73;1.40;;;7.30;98.00;;;;;;5031502;28;20452;-68
2024/01/23 04:49:46;;;;;;;3.10;1.60;;;7.20;98.00;;;;;;4991280;28;1163539;-68
2024/01/23 04:52:13;;;;;;;6.27;1.60;;;7.20;98.00;;;;;;5032326;28;20566;-68
2024/01/23 04:54:41;;;;;;;13.10;1.70;;;7.10;98.00;;;;;;5031971;28;20460;-67
2024/01/23 04:57:08;;;;;;;6.00;1.70;;;7.00;98.00;;;;;;5031924;28;20537;-68
2024/01/23 04:59:36;;;;;;;9.00;2.07;;;7.10;98.00;;;;;;5031970;28;20452;-67
2024/01/23 05:02:05;;;;;;;8.23;1.93;;;7.10;98.00;;;;;;5030645;28;20454;-68
2024/01/23 05:04:32;;;;;;;6.13;1.90;;;7.10;98.00;;;;;;5031712;28;20479;-68
2024/01/23 05:06:59;;;;;;;5.73;1.87;;;7.10;98.00;;;;;;5031665;28;20451;-68
2024/01/23 05:09:30;;;;;;;2.97;1.60;;;7.10;98.00;;;;;;5031785;28;20986;-67
2024/01/23 05:11:57;;;;;;;9.23;1.63;;;7.10;98.00;;;;;;5031612;28;20464;-68
2024/01/23 05:14:25;;;;;;;1.97;1.50;;;7.10;98.00;;;;;;5031636;28;20458;-67
2024/01/23 05:16:54;;;;;;;7.83;1.90;;;7.10;98.00;;;;;;5031614;28;20451;-68
2024/01/23 05:19:21;;;;;;;6.60;1.77;;;7.10;98.00;;;;;;5031387;28;20462;-68
2024/01/23 05:21:48;;;;;;;1.90;1.33;;;7.10;98.00;;;;;;5031472;28;20458;-67
2024/01/23 05:24:17;;;;;;;5.83;1.70;;;7.10;98.00;;;;;;5031577;28;20789;-68
2024/01/23 05:26:44;;;;;;;2.43;1.50;;;7.10;98.00;;;;;;5031587;28;20944;-67
2024/01/23 05:29:11;;;;;;;1.87;1.40;;;7.10;98.00;;;;;;5031513;28;20488;-68
2024/01/23 05:31:38;;;;;;;3.00;1.50;;;7.10;98.00;;;;;;5031620;28;20458;-67
2024/01/23 05:34:07;;;;;;;5.93;1.80;;;7.10;98.00;;;;;;5013878;28;20446;-67
2024/01/23 05:36:34;;;;;;;4.87;1.53;;;7.10;98.00;;;;;;5031234;28;20939;-68
2024/01/23 05:39:01;;;;;;;3.50;1.60;;;7.10;98.00;;;;;;5031680;28;20479;-68
2024/01/23 05:41:28;;;;;;;3.17;1.23;;;7.10;98.00;;;;;;5031614;28;20814;-67
2024/01/23 05:43:57;;;;;;;3.00;1.30;;;7.00;98.00;;;;;;5031507;28;20452;-68
2024/01/23 05:46:35;;;;;;;4.60;1.37;;;7.00;98.00;;;;;;5031491;28;20448;-68
2024/01/23 05:49:03;;;;;;;4.87;1.57;;;7.00;98.00;;;;;;5031155;28;21180;-68
2024/01/23 05:51:31;;;;;;;3.10;1.30;;;7.00;98.00;;;;;;5031308;28;20458;-68
2024/01/23 05:53:59;;;;;;;7.83;1.97;;;7.00;98.00;;;;;;5031571;28;20455;-68
2024/01/23 05:56:25;;;;;;;1.73;1.20;;;7.00;98.00;;;;;;5013845;28;20953;-67
2024/01/23 05:58:52;;;;;;;3.03;1.40;;;7.00;98.00;;;;;;5031461;28;20468;-67
2024/01/23 06:01:19;;;;;;;2.70;1.57;;;7.00;98.00;;;;;;5030923;28;20963;-68
2024/01/23 06:03:49;;;;;;;5.07;1.60;;;6.90;98.00;;;;;;5031540;28;20455;-68
2024/01/23 06:06:18;;;;;;;3.87;1.90;;;6.90;98.00;;;;;;5031460;28;20461;-67
2024/01/23 06:08:48;;;;;;;1.97;1.50;;;6.90;98.00;;;;;;5014212;28;20451;-67
2024/01/23 06:11:15;;;;;;;8.83;1.80;;;6.90;98.00;;;;;;5031342;28;20480;-67
2024/01/23 06:13:42;;;;;;;3.70;1.83;;;6.90;98.00;;;;;;5034310;28;20459;-68
2024/01/23 06:16:09;;;;;;;4.70;1.53;;;6.80;98.00;;;;;;5034083;28;20462;-67
2024/01/23 06:18:36;;;;;;;3.10;1.60;;;6.80;98.00;;;;;;5033967;28;20447;-68
2024/01/23 06:21:04;;;;;;;6.43;1.97;;;6.80;98.00;;;;;;5034583;28;20450;-67
2024/01/23 06:23:31;;;;;;;5.23;1.60;;;6.80;98.00;;;;;;5034607;28;20456;-67
2024/01/23 06:26:00;;;;;;;2.90;1.67;;;6.90;98.00;;;;;;5017255;28;20466;-67
2024/01/23 06:28:27;;;;;;;6.77;1.87;;;6.90;98.00;;;;;;5017129;28;20958;-67
2024/01/23 06:30:54;;;;;;;7.13;1.53;;;6.80;98.00;;;;;;5034440;28;21033;-68
2024/01/23 06:33:21;;;;;;;3.20;1.43;;;6.90;98.00;;;;;;5034540;28;20455;-68
2024/01/23 06:35:50;;;;;;;6.30;1.47;;;6.90;98.00;;;;;;5032946;28;20445;-67
2024/01/23 06:38:17;;;;;;;1.53;1.33;;;6.80;98.00;;;;;;5053939;28;20459;-68
2024/01/23 06:40:44;;;;;;;3.17;1.43;;;6.80;98.00;;;;;;5054294;28;21105;-68
2024/01/23 06:43:25;;;;;;;4.03;1.47;;;6.80;98.00;;;;;;5036797;28;20977;-67
2024/01/23 06:45:52;;;;;;;5.27;1.63;;;6.80;98.00;;;;;;5054726;28;20454;-68
2024/01/23 06:48:19;;;;;;;2.83;1.70;;;6.80;98.00;;;;;;5054102;28;20467;-68
2024/01/23 06:50:46;;;;;;;8.07;2.00;;;6.80;98.00;;;;;;5054280;28;20492;-68
2024/01/23 06:53:13;;;;;;;3.70;1.37;;;6.90;98.00;;;;;;5054019;28;20451;-67
2024/01/23 06:55:40;;;;;;;5.80;2.20;;;6.90;98.00;;;;;;5053764;28;20459;-67
2024/01/23 06:58:07;;;;;;;3.00;1.30;;;6.90;98.00;;;;;;5053655;28;20455;-68
2024/01/23 07:00:35;;;;;;;1.83;1.30;;;6.90;98.00;;;;;;5053247;28;20460;-64
2024/01/23 07:03:02;;;;;;;3.80;1.47;;;6.90;98.00;;;;;;5053683;28;20483;-64
2024/01/23 07:05:29;;;;;;;5.20;1.60;;;6.90;98.00;;;;;;5053608;28;20862;-64
2024/01/23 07:07:57;;;;;;;2.70;1.30;;;6.80;98.00;;;;;;5053517;28;20561;-64
2024/01/23 07:10:24;;;;;;;1.93;1.23;;;6.80;98.00;;;;;;5036020;28;21017;-64
2024/01/23 07:12:52;;;;;;;2.53;1.97;;;6.80;98.00;;;;;;5053725;28;20516;-64
2024/01/23 07:15:19;;;;;;;5.70;1.47;;;6.70;98.00;;;;;;5053642;28;20482;-64
2024/01/23 07:17:47;;;;;;;4.80;1.40;;;6.60;98.00;;;;;;5053402;28;20454;-65
2024/01/23 07:20:17;;;;;;;2.50;1.10;;;6.60;98.00;;;;;;5053502;28;20460;-65
2024/01/23 07:22:44;;;;;;;1.30;1.20;;;6.60;98.00;;;;;;5053330;28;20508;-64
2024/01/23 07:25:12;;;;;;;1.87;1.40;;;6.60;98.00;;;;;;5052770;28;20454;-64
2024/01/23 07:27:39;;;;;;;2.50;1.20;;;6.50;98.00;;;;;;5053184;28;20457;-65
2024/01/23 07:30:07;;;;;;;2.60;1.47;;;6.50;98.00;;;;;;5053034;28;20886;-65
2024/01/23 07:32:35;;;;;;;2.07;1.30;;;6.60;98.00;;;;;;5035869;28;20453;-64
2024/01/23 07:35:03;;;;;;;2.17;1.30;;;6.50;98.00;;;;;;5053169;28;20453;-64
2024/01/23 07:37:31;;;;;;;3.00;1.47;;;6.50;98.00;;;;;;5053025;28;20480;-64
2024/01/23 07:39:58;;;;;;;1.40;1.10;;;6.50;98.00;;;;;;5052993;28;20949;-64
2024/01/23 07:42:26;;;;;;;4.70;1.40;;;6.40;98.00;;;;;;5052971;28;20500;-64
2024/01/23 07:44:53;;;;;;;5.23;1.50;;;6.40;98.00;;;;;;5053094;28;20453;-64
2024/01/23 07:47:20;;;;;;;2.23;1.30;;;6.40;98.00;;;;;;5052974;28;20461;-64
2024/01/23 07:49:47;;;;;;;1.43;1.30;;;6.40;98.00;;;;;;5052549;28;20485;-64
2024/01/23 07:52:19;;;;;;;7.87;1.47;;;6.40;98.00;;;;;;5052903;28;20841;-64
2024/01/23 07:54:46;;;;;;;1.90;1.30;;;6.40;98.00;;;;;;5045061;28;20865;-64
2024/01/23 07:57:13;;;;;;;1.50;1.20;;;6.50;98.00;;;;;;5032735;28;20447;-64
2024/01/23 07:59:40;;;;;;;3.83;1.50;;;6.40;98.00;;;;;;5031078;28;20449;-64
2024/01/23 08:02:07;;;;;;;2.53;1.40;;;6.50;98.00;;;;;;5032788;28;20821;-64
2024/01/23 08:04:34;;;;;;;2.10;1.13;;;6.40;98.00;;;;;;5032970;28;20490;-65
2024/01/23 08:07:02;;;;;;;1.70;1.40;;;6.40;98.00;;;;;;5032752;28;20457;-65
2024/01/23 08:09:30;;;;;;;3.63;1.40;;;6.30;98.00;;;;;;5032782;28;20455;-65
2024/01/23 08:11:57;;;;;;;1.30;1.20;;;6.40;98.00;;;;;;5032864;28;20450;-64
2024/01/23 08:14:24;;;;;;;6.97;1.63;;;6.40;98.00;;;;;;5032734;28;20828;-65
2024/01/23 08:16:52;;;;;;;1.73;1.20;;;6.40;98.00;;;;;;5032627;28;20474;-64
2024/01/23 08:19:19;;;;;;;1.57;1.30;;;6.50;98.00;;;;;;5031593;28;20479;-65
2024/01/23 08:21:49;;;;;;;2.67;1.60;;;6.60;98.00;;;;;;5032476;28;20451;-65
2024/01/23 08:24:16;;;;;;;4.40;1.23;;;6.70;98.00;;;;;;5032615;28;20495;-64
2024/01/23 08:26:44;;;;;;;1.47;1.33;;;6.80;98.00;;;;;;5032401;28;20460;-64
2024/01/23 08:29:11;;;;;;;1.60;1.13;;;6.80;98.00;;;;;;5032450;28;20528;-64
2024/01/23 08:31:39;;;;;;;2.87;1.53;;;6.70;98.00;;;;;;5032229;28;20480;-64
2024/01/23 08:34:06;;;;;;;2.43;1.50;;;6.70;98.00;;;;;;5032604;28;20464;-64
2024/01/23 08:36:33;;;;;;;2.80;1.50;;;6.70;98.00;;;;;;5031098;28;20463;-64
2024/01/23 08:39:00;;;;;;;2.17;1.40;;;6.80;98.00;;;;;;5032308;28;20458;-64
2024/01/23 08:41:28;;;;;;;3.73;1.30;;;6.80;98.00;;;;;;5032298;28;20453;-65
2024/01/23 08:43:56;;;;;;;2.33;1.33;;;6.90;98.00;;;;;;5032138;28;20963;-65
2024/01/23 08:46:23;;;;;;;2.63;1.70;;;7.00;98.00;;;;;;5031086;28;20460;-65
2024/01/23 08:48:51;;;;;;;2.00;1.40;;;7.00;98.00;;;;;;5031621;28;20473;-64
2024/01/23 08:51:18;;;;;;;4.87;1.60;;;7.00;98.00;;;;;;5032043;28;20489;-64
2024/01/23 08:53:46;;;;;;;5.10;1.90;;;7.00;98.00;;;;;;5031663;28;20460;-65
2024/01/23 08:56:13;;;;;;;1.30;1.20;;;7.00;98.00;;;;;;5031866;28;20467;-65
2024/01/23 08:58:40;;;;;;;3.53;1.63;;;7.00;98.00;;;;;;5031507;28;20452;-65
2024/01/23 09:01:08;;;;;;;2.80;1.20;;;7.00;98.00;;;;;;5031414;28;20808;-65
2024/01/23 09:03:36;;;;;;;3.83;1.40;;;7.00;98.00;;;;;;5013981;28;20957;-65
2024/01/23 09:06:04;;;;;;;3.30;1.70;;;7.10;98.00;;;;;;5031884;28;20490;-65
2024/01/23 09:08:31;;;;;;;9.00;1.70;;;7.10;98.00;;;;;;5031612;28;20555;-62
2024/01/23 09:11:03;;;;;;;1.33;1.20;;;7.20;98.00;;;;;;5031580;28;20815;-62
2024/01/23 09:13:31;;;;;;;2.90;1.60;;;7.70;98.00;;;;;;5014167;28;20458;-65
2024/01/23 09:15:58;;;;;;;4.87;1.83;;;7.80;98.00;;;;;;5031615;28;21003;-64
2024/01/23 09:18:28;;;;;;;5.53;1.63;;;7.70;98.00;;;;;;5031360;28;20945;-64
2024/01/23 09:20:56;;;;;;;2.67;1.50;;;7.60;98.00;;;;;;5031595;28;20452;-65
2024/01/23 09:23:23;;;;;;;1.80;1.63;;;7.50;98.00;;;;;;5031720;28;20449;-65
2024/01/23 09:25:50;;;;;;;4.20;1.43;;;7.40;98.00;;;;;;5013951;28;20468;-65
2024/01/23 09:28:18;;;;;;;1.60;1.37;;;7.30;98.00;;;;;;5031461;28;20449;-64
2024/01/23 09:30:46;;;;;;;4.90;1.50;;;7.20;98.00;;;;;;5031367;28;20481;-65
2024/01/23 09:33:17;;;;;;;5.43;1.53;;;7.20;98.00;;;;;;5031450;28;20459;-65
2024/01/23 09:35:46;;;;;;;3.67;1.70;;;7.20;98.00;;;;;;5031571;28;20941;-65
2024/01/23 09:38:13;;;;;;;2.23;1.30;;;7.10;98.00;;;;;;5031410;28;20543;-64
2024/01/23 09:40:42;;;;;;;4.10;1.70;;;7.20;98.00;;;;;;5031462;28;20478;-65
2024/01/23 09:43:12;;;;;;;6.33;1.60;;;7.20;98.00;;;;;;5031644;28;20455;-65
2024/01/23 09:45:40;;;;;;;3.57;1.30;;;7.20;98.00;;;;;;5031327;28;20542;-65
2024/01/23 09:48:08;;;;;;;1.70;1.40;;;7.20;98.00;;;;;;5033891;28;20533;-65
2024/01/23 09:50:41;;;;;;;3.67;1.30;;;7.20;98.00;;;;;;5035090;28;20490;-65
2024/01/23 09:53:11;;;;;;;3.13;1.30;;;7.20;98.00;;;;;;5035110;28;20459;-65
2024/01/23 09:55:39;;;;;;;4.30;1.50;;;7.30;98.00;;;;;;5035178;28;20540;-65
2024/01/23 09:58:07;;;;;;;4.83;1.67;;;7.30;98.00;;;;;;5034973;28;20475;-65
2024/01/23 10:00:35;;;;;;;4.80;1.30;;;7.30;98.00;;;;;;5017891;28;20533;-65
2024/01/23 10:03:05;;;;;;;3.47;1.60;;;7.30;98.00;;;;;;5034967;28;20455;-65
2024/01/23 10:05:32;;;;;;;2.13;1.60;;;7.30;98.00;;;;;;5035036;28;20453;-65
2024/01/23 10:07:59;;;;;;;3.30;1.47;;;7.30;98.00;;;;;;5034912;28;20458;-65
2024/01/23 10:10:30;;;;;;;1.90;1.33;;;7.30;98.00;;;;;;5035073;28;20842;-65
2024/01/23 10:12:59;;;;;;;3.70;1.50;;;7.30;98.00;;;;;;5034960;28;20453;-65
2024/01/23 10:15:26;;;;;;;1.97;1.30;;;7.30;98.00;;;;;;5035046;28;20476;-65
2024/01/23 10:17:53;;;;;;;4.30;1.40;;;7.30;98.00;;;;;;5034851;28;20832;-65
2024/01/23 10:20:21;;;;;;;3.50;1.60;;;7.30;98.00;;;;;;5035140;28;20460;-65
2024/01/23 10:22:48;;;;;;;1.40;1.40;;;7.40;98.00;;;;;;5034886;28;20452;-65
2024/01/23 10:25:20;;;;;;;7.23;1.40;;;7.40;98.00;;;;;;5034536;28;20454;-65
2024/01/23 10:27:56;;;;;;;1.87;1.40;;;7.40;98.00;;;;;;5034308;28;20541;-65
2024/01/23 10:30:23;;;;;;;2.20;1.30;;;7.50;98.00;;;;;;5034667;28;20457;-64
2024/01/23 10:32:50;;;;;;;2.03;1.27;;;7.50;98.00;;;;;;5034363;28;20974;-65
2024/01/23 10:35:17;;;;;;;5.53;1.50;;;7.60;98.00;;;;;;5034108;28;20514;-65
2024/01/23 10:37:45;;;;;;;3.97;1.70;;;7.70;98.00;;;;;;5000154;28;20455;-65
2024/01/23 10:40:15;;;;;;;1.97;1.40;;;7.80;98.00;;;;;;5034036;28;20458;-65
2024/01/23 10:42:43;;;;;;;3.30;1.30;;;8.00;98.00;;;;;;5032780;28;20515;-64
2024/01/23 10:45:15;;;;;;;2.00;1.50;;;8.00;98.00;;;;;;5033925;28;20822;-64
2024/01/23 10:47:42;;;;;;;5.00;1.87;;;7.90;98.00;;;;;;5034073;28;21007;-64
2024/01/23 10:50:10;;;;;;;3.60;1.47;;;8.00;98.00;;;;;;5033863;28;20949;-64
2024/01/23 10:52:40;;;;;;;1.40;1.33;;;7.90;98.00;;;;;;5033766;28;20530;-64
2024/01/23 10:55:09;;;;;;;5.97;1.70;;;7.90;98.00;;;;;;5033923;28;20460;-65
2024/01/23 10:57:38;;;;;;;4.70;1.50;;;7.90;98.00;;;;;;5032096;28;20456;-64
2024/01/23 11:00:10;;;;;;;1.97;1.53;;;7.90;98.00;;;;;;5033634;28;20459;-64
2024/01/23 11:02:46;;;;;;;1.90;1.43;;;7.90;98.00;;;;;;5033496;28;20452;-64
2024/01/23 11:05:15;;;;;;;1.60;1.40;;;7.90;98.00;;;;;;5033614;28;20467;-65
2024/01/23 11:07:46;;;;;;;4.50;1.90;;;7.90;98.00;;;;;;5033535;28;20459;-64
2024/01/23 11:10:37;;;;;;;6.00;1.40;;;7.90;98.00;;;;;;5033503;28;20465;-64
2024/01/23 11:13:11;;;;;;;2.60;1.50;;;8.10;98.00;;;;;;5015884;28;21019;-65
2024/01/23 11:15:38;;;;;;;2.70;1.80;;;8.10;98.00;;;;;;5033535;28;20457;-64
2024/01/23 11:18:26;;;;;;;2.00;1.50;;;8.10;98.00;;;;;;5032778;28;20453;-64
2024/01/23 11:21:12;;;;;;;4.20;1.80;;;8.10;98.00;;;;;;5032740;28;20492;-64
2024/01/23 11:23:41;;;;;;;2.07;1.50;;;8.30;98.00;;;;;;5032328;28;20465;-65
2024/01/23 11:26:20;;;;;;;3.90;2.00;;;8.30;98.00;;;;;;5033490;28;20454;-64
2024/01/23 11:28:49;;;;;;;4.33;2.30;;;8.40;98.00;;;;;;5033333;28;20444;-64
2024/01/23 11:31:19;;;;;;;4.93;2.27;;;8.30;98.00;;;;;;5033247;28;20519;-64
2024/01/23 11:33:48;;;;;;;4.43;1.60;;;8.20;98.00;;;;;;5033266;28;20448;-64
2024/01/23 11:36:21;;;;;;;3.33;1.87;;;8.20;98.00;;;;;;5033231;28;20523;-64
2024/01/23 11:38:50;;;;;;;2.00;1.53;;;8.30;98.00;;;;;;5033097;28;20463;-64
2024/01/23 11:41:22;;;;;;;4.77;1.60;;;8.40;98.00;;;;;;5033188;28;20453;-64
2024/01/23 11:43:50;;;;;;;2.53;1.77;;;8.50;98.00;;;;;;5033218;28;20457;-64
2024/01/23 11:46:21;;;;;;;2.90;1.73;;;8.50;98.00;;;;;;5032278;28;20939;-64
2024/01/23 11:48:51;;;;;;;4.60;2.03;;;8.60;98.00;;;;;;5032673;28;20470;-64
2024/01/23 11:51:18;;;;;;;3.90;1.47;;;8.70;98.00;;;;;;5033026;28;20512;-64
2024/01/23 11:53:46;;;;;;;3.17;1.60;;;8.90;98.00;;;;;;5032807;28;20609;-64
2024/01/23 11:56:15;;;;;;;3.40;1.70;;;8.90;98.00;;;;;;5032889;28;20450;-64
2024/01/23 11:58:42;;;;;;;4.27;1.87;;;9.10;98.00;;;;;;5032626;28;20456;-64
2024/01/23 12:01:10;;;;;;;4.60;1.60;;;9.20;98.00;;;;;;5015411;28;20894;-64
2024/01/23 12:03:45;;;;;;;3.33;1.97;;;9.40;98.00;;;;;;5032546;28;20469;-64
2024/01/23 12:06:14;;;;;;;6.47;1.87;;;9.40;98.00;;;;;;5032750;28;20454;-64
2024/01/23 12:08:41;;;;;;;2.40;1.80;;;9.50;98.00;;;;;;5032830;28;20493;-64
2024/01/23 12:11:09;;;;;;;4.80;1.63;;;9.40;98.00;;;;;;5032329;28;20481;-64
2024/01/23 12:13:37;;;;;;;5.60;2.10;;;9.10;98.00;;;;;;5015092;28;20461;-64
2024/01/23 12:16:07;;;;;;;2.53;1.47;;;8.90;98.00;;;;;;5032785;28;20485;-64
2024/01/23 12:18:35;;;;;;;7.93;1.60;;;9.10;98.00;;;;;;5014888;28;20461;-64
2024/01/23 12:21:04;;;;;;;6.60;1.80;;;9.20;98.00;;;;;;5032227;28;20509;-64
2024/01/23 12:23:33;;;;;;;3.70;1.63;;;9.20;98.00;;;;;;5032141;28;20442;-64
2024/01/23 12:26:00;;;;;;;5.87;1.70;;;9.20;98.00;;;;;;5032416;28;20514;-64
2024/01/23 12:28:29;;;;;;;3.23;1.80;;;9.40;98.00;;;;;;5032325;28;20828;-64
2024/01/23 12:30:56;;;;;;;6.57;1.87;;;9.50;98.00;;;;;;5031726;28;20458;-64
2024/01/23 12:33:27;;;;;;;4.37;1.70;;;9.80;98.00;;;;;;5031802;28;20534;-64
2024/01/23 12:35:54;;;;;;;9.63;2.00;;;10.00;98.00;;;;;;5014974;28;20509;-64
2024/01/23 12:38:22;;;;;;;9.30;2.30;;;10.30;98.00;;;;;;5031481;28;20452;-64
2024/01/23 12:40:52;;;;;;;7.90;1.77;;;10.60;98.00;;;;;;5031109;28;20458;-64
2024/01/23 12:43:22;;;;;;;3.03;1.90;;;10.90;98.00;;;;;;5031660;28;21096;-64
2024/01/23 12:45:52;;;;;;;6.93;2.00;;;11.10;98.00;;;;;;5030314;28;20453;-64
2024/01/23 12:48:24;;;;;;;6.17;1.67;;;11.20;98.00;;;;;;5031666;28;20458;-64
2024/01/23 12:50:51;;;;;;;4.30;1.73;;;11.30;98.00;;;;;;5031567;28;20447;-64
2024/01/23 12:53:19;;;;;;;12.40;1.70;;;11.50;98.00;;;;;;5031629;28;20864;-64
2024/01/23 12:55:46;;;;;;;5.50;1.90;;;11.80;98.00;;;;;;5031815;28;20497;-64
2024/01/23 12:58:14;;;;;;;5.10;1.77;;;11.60;98.00;;;;;;5031734;28;20450;-64
2024/01/23 13:00:41;;;;;;;3.43;1.87;;;11.50;98.00;;;;;;5031905;28;20451;-64